sensor_id;sensor_type;location;lat;lon;timestamp;P1;durP1;ratioP1;P2;durP2;ratioP2
18659;SDS011;9459;50.254;19.014;2023-02-15T00:00:10;28.42;;;18.05;;
18659;SDS011;9459;50.254;19.014;2023-02-15T00:02:59;23.97;;;15.87;;
18659;SDS011;9459;50.254;19.014;2023-02-15T00:05:29;22.58;;;14.32;;
18659;SDS011;9459;50.254;19.014;2023-02-15T00:07:58;20.00;;;13.40;;
18659;SDS011;9459;50.254;19.014;2023-02-15T00:10:27;18.25;;;11.07;;
18659;SDS011;9459;50.254;19.014;2023-02-15T00:12:55;21.38;;;12.18;;
18659;SDS011;9459;50.254;19.014;2023-02-15T00:15:25;22.15;;;13.40;;
18659;SDS011;9459;50.254;19.014;2023-02-15T00:17:53;20.70;;;12.00;;
18659;SDS011;9459;50.254;19.014;2023-02-15T00:20:22;19.10;;;11.95;;
18659;SDS011;9459;50.254;19.014;2023-02-15T00:22:51;23.13;;;11.77;;
18659;SDS011;9459;50.254;19.014;2023-02-15T00:25:19;24.30;;;14.80;;
18659;SDS011;9459;50.254;19.014;2023-02-15T00:27:48;22.83;;;13.35;;
18659;SDS011;9459;50.254;19.014;2023-02-15T00:30:17;20.08;;;11.48;;
18659;SDS011;9459;50.254;19.014;2023-02-15T00:32:48;16.80;;;11.45;;
18659;SDS011;9459;50.254;19.014;2023-02-15T00:37:44;19.77;;;12.00;;
18659;SDS011;9459;50.254;19.014;2023-02-15T00:40:13;20.08;;;12.52;;
18659;SDS011;9459;50.254;19.014;2023-02-15T00:42:41;25.15;;;13.70;;
18659;SDS011;9459;50.254;19.014;2023-02-15T00:45:10;17.88;;;11.30;;
18659;SDS011;9459;50.254;19.014;2023-02-15T00:47:39;16.85;;;10.07;;
18659;SDS011;9459;50.254;19.014;2023-02-15T00:50:09;18.45;;;10.98;;
18659;SDS011;9459;50.254;19.014;2023-02-15T00:52:38;15.43;;;11.33;;
18659;SDS011;9459;50.254;19.014;2023-02-15T00:55:06;19.80;;;12.00;;
18659;SDS011;9459;50.254;19.014;2023-02-15T00:57:35;15.95;;;10.80;;
18659;SDS011;9459;50.254;19.014;2023-02-15T01:00:04;21.08;;;13.18;;
18659;SDS011;9459;50.254;19.014;2023-02-15T01:02:34;22.00;;;13.82;;
18659;SDS011;9459;50.254;19.014;2023-02-15T01:05:05;14.80;;;10.90;;
18659;SDS011;9459;50.254;19.014;2023-02-15T01:07:36;17.60;;;11.52;;
18659;SDS011;9459;50.254;19.014;2023-02-15T01:10:05;18.77;;;11.38;;
18659;SDS011;9459;50.254;19.014;2023-02-15T01:12:35;19.90;;;12.45;;
18659;SDS011;9459;50.254;19.014;2023-02-15T01:15:04;21.05;;;13.75;;
18659;SDS011;9459;50.254;19.014;2023-02-15T01:17:32;18.70;;;14.20;;
18659;SDS011;9459;50.254;19.014;2023-02-15T01:20:01;21.33;;;14.95;;
18659;SDS011;9459;50.254;19.014;2023-02-15T01:22:30;23.25;;;14.68;;
18659;SDS011;9459;50.254;19.014;2023-02-15T01:25:00;22.10;;;13.90;;
18659;SDS011;9459;50.254;19.014;2023-02-15T01:27:29;20.17;;;14.35;;
18659;SDS011;9459;50.254;19.014;2023-02-15T01:29:58;22.83;;;13.35;;
18659;SDS011;9459;50.254;19.014;2023-02-15T01:32:26;23.17;;;14.77;;
18659;SDS011;9459;50.254;19.014;2023-02-15T01:34:56;29.33;;;16.48;;
18659;SDS011;9459;50.254;19.014;2023-02-15T01:37:25;30.30;;;19.15;;
18659;SDS011;9459;50.254;19.014;2023-02-15T01:39:53;24.45;;;16.48;;
18659;SDS011;9459;50.254;19.014;2023-02-15T01:42:23;33.05;;;18.13;;
18659;SDS011;9459;50.254;19.014;2023-02-15T01:44:53;30.98;;;18.70;;
18659;SDS011;9459;50.254;19.014;2023-02-15T01:49:57;27.13;;;16.85;;
18659;SDS011;9459;50.254;19.014;2023-02-15T01:52:28;31.52;;;17.50;;
18659;SDS011;9459;50.254;19.014;2023-02-15T01:54:57;31.50;;;18.77;;
18659;SDS011;9459;50.254;19.014;2023-02-15T01:57:27;27.05;;;17.25;;
18659;SDS011;9459;50.254;19.014;2023-02-15T01:59:57;29.40;;;19.30;;
18659;SDS011;9459;50.254;19.014;2023-02-15T02:02:27;27.42;;;20.15;;
18659;SDS011;9459;50.254;19.014;2023-02-15T02:04:58;34.35;;;21.33;;
18659;SDS011;9459;50.254;19.014;2023-02-15T02:07:30;31.60;;;18.88;;
18659;SDS011;9459;50.254;19.014;2023-02-15T02:10:01;29.30;;;18.25;;
18659;SDS011;9459;50.254;19.014;2023-02-15T02:12:32;35.40;;;21.00;;
18659;SDS011;9459;50.254;19.014;2023-02-15T02:15:01;30.65;;;19.67;;
18659;SDS011;9459;50.254;19.014;2023-02-15T02:17:31;23.85;;;14.65;;
18659;SDS011;9459;50.254;19.014;2023-02-15T02:20:10;28.30;;;18.42;;
18659;SDS011;9459;50.254;19.014;2023-02-15T02:22:58;29.02;;;19.38;;
18659;SDS011;9459;50.254;19.014;2023-02-15T02:25:40;27.85;;;18.50;;
18659;SDS011;9459;50.254;19.014;2023-02-15T02:28:45;30.58;;;19.48;;
18659;SDS011;9459;50.254;19.014;2023-02-15T02:31:32;36.15;;;21.73;;
18659;SDS011;9459;50.254;19.014;2023-02-15T02:34:14;28.48;;;18.73;;
18659;SDS011;9459;50.254;19.014;2023-02-15T02:36:47;30.83;;;21.33;;
18659;SDS011;9459;50.254;19.014;2023-02-15T02:39:21;31.42;;;19.35;;
18659;SDS011;9459;50.254;19.014;2023-02-15T02:41:57;31.77;;;19.67;;
18659;SDS011;9459;50.254;19.014;2023-02-15T02:44:30;33.92;;;19.45;;
18659;SDS011;9459;50.254;19.014;2023-02-15T02:47:04;36.40;;;19.58;;
18659;SDS011;9459;50.254;19.014;2023-02-15T02:49:37;35.35;;;21.75;;
18659;SDS011;9459;50.254;19.014;2023-02-15T02:52:31;34.10;;;21.38;;
18659;SDS011;9459;50.254;19.014;2023-02-15T02:55:10;33.13;;;21.23;;
18659;SDS011;9459;50.254;19.014;2023-02-15T02:57:43;34.63;;;22.23;;
18659;SDS011;9459;50.254;19.014;2023-02-15T03:00:17;38.15;;;23.08;;
18659;SDS011;9459;50.254;19.014;2023-02-15T03:02:47;34.00;;;20.90;;
18659;SDS011;9459;50.254;19.014;2023-02-15T03:05:19;32.25;;;20.42;;
18659;SDS011;9459;50.254;19.014;2023-02-15T03:07:51;32.35;;;19.15;;
18659;SDS011;9459;50.254;19.014;2023-02-15T03:10:22;29.98;;;19.05;;
18659;SDS011;9459;50.254;19.014;2023-02-15T03:12:51;34.97;;;19.92;;
18659;SDS011;9459;50.254;19.014;2023-02-15T03:15:21;35.53;;;20.48;;
18659;SDS011;9459;50.254;19.014;2023-02-15T03:17:51;29.65;;;19.90;;
18659;SDS011;9459;50.254;19.014;2023-02-15T03:20:24;31.45;;;19.17;;
18659;SDS011;9459;50.254;19.014;2023-02-15T03:22:56;27.15;;;17.35;;
18659;SDS011;9459;50.254;19.014;2023-02-15T03:25:27;31.63;;;18.85;;
18659;SDS011;9459;50.254;19.014;2023-02-15T03:28:01;28.33;;;18.35;;
18659;SDS011;9459;50.254;19.014;2023-02-15T03:30:31;34.17;;;20.63;;
18659;SDS011;9459;50.254;19.014;2023-02-15T03:33:01;30.45;;;19.35;;
18659;SDS011;9459;50.254;19.014;2023-02-15T03:35:31;30.05;;;19.00;;
18659;SDS011;9459;50.254;19.014;2023-02-15T03:38:04;30.55;;;20.10;;
18659;SDS011;9459;50.254;19.014;2023-02-15T03:40:36;33.00;;;19.92;;
18659;SDS011;9459;50.254;19.014;2023-02-15T03:43:26;32.85;;;20.65;;
18659;SDS011;9459;50.254;19.014;2023-02-15T03:45:59;29.65;;;19.73;;
18659;SDS011;9459;50.254;19.014;2023-02-15T03:48:35;31.63;;;19.80;;
18659;SDS011;9459;50.254;19.014;2023-02-15T03:51:08;35.20;;;20.70;;
18659;SDS011;9459;50.254;19.014;2023-02-15T03:53:57;30.17;;;18.83;;
18659;SDS011;9459;50.254;19.014;2023-02-15T03:56:27;30.17;;;19.67;;
18659;SDS011;9459;50.254;19.014;2023-02-15T03:58:56;30.88;;;17.88;;
18659;SDS011;9459;50.254;19.014;2023-02-15T04:01:44;29.80;;;18.65;;
18659;SDS011;9459;50.254;19.014;2023-02-15T04:04:32;30.25;;;19.33;;
18659;SDS011;9459;50.254;19.014;2023-02-15T04:07:03;35.38;;;21.10;;
18659;SDS011;9459;50.254;19.014;2023-02-15T04:09:34;29.30;;;19.75;;
18659;SDS011;9459;50.254;19.014;2023-02-15T04:12:21;29.08;;;18.60;;
18659;SDS011;9459;50.254;19.014;2023-02-15T04:14:49;30.58;;;19.33;;
18659;SDS011;9459;50.254;19.014;2023-02-15T04:17:36;36.53;;;20.00;;
18659;SDS011;9459;50.254;19.014;2023-02-15T04:20:05;37.15;;;20.67;;
18659;SDS011;9459;50.254;19.014;2023-02-15T04:22:52;31.73;;;20.27;;
18659;SDS011;9459;50.254;19.014;2023-02-15T04:25:40;35.05;;;20.27;;
18659;SDS011;9459;50.254;19.014;2023-02-15T04:28:08;32.53;;;20.27;;
18659;SDS011;9459;50.254;19.014;2023-02-15T04:30:37;38.03;;;21.08;;
18659;SDS011;9459;50.254;19.014;2023-02-15T04:33:06;44.58;;;25.48;;
18659;SDS011;9459;50.254;19.014;2023-02-15T04:35:35;36.03;;;21.80;;
18659;SDS011;9459;50.254;19.014;2023-02-15T04:38:03;37.40;;;22.08;;
18659;SDS011;9459;50.254;19.014;2023-02-15T04:40:33;33.33;;;20.17;;
18659;SDS011;9459;50.254;19.014;2023-02-15T04:43:03;36.38;;;19.42;;
18659;SDS011;9459;50.254;19.014;2023-02-15T04:45:31;36.85;;;21.05;;
18659;SDS011;9459;50.254;19.014;2023-02-15T04:48:00;38.20;;;22.00;;
18659;SDS011;9459;50.254;19.014;2023-02-15T04:50:29;43.40;;;23.25;;
18659;SDS011;9459;50.254;19.014;2023-02-15T04:52:57;35.58;;;21.73;;
18659;SDS011;9459;50.254;19.014;2023-02-15T04:55:26;39.55;;;22.83;;
18659;SDS011;9459;50.254;19.014;2023-02-15T04:57:54;36.33;;;21.70;;
18659;SDS011;9459;50.254;19.014;2023-02-15T05:00:24;38.72;;;21.63;;
18659;SDS011;9459;50.254;19.014;2023-02-15T05:02:54;46.20;;;25.92;;
18659;SDS011;9459;50.254;19.014;2023-02-15T05:05:23;39.35;;;23.80;;
18659;SDS011;9459;50.254;19.014;2023-02-15T05:07:51;41.92;;;22.83;;
18659;SDS011;9459;50.254;19.014;2023-02-15T05:10:21;44.42;;;25.27;;
18659;SDS011;9459;50.254;19.014;2023-02-15T05:12:49;49.65;;;26.25;;
18659;SDS011;9459;50.254;19.014;2023-02-15T05:15:18;46.05;;;24.60;;
18659;SDS011;9459;50.254;19.014;2023-02-15T05:17:48;41.83;;;23.02;;
18659;SDS011;9459;50.254;19.014;2023-02-15T05:20:16;39.75;;;22.85;;
18659;SDS011;9459;50.254;19.014;2023-02-15T05:22:46;42.05;;;22.90;;
18659;SDS011;9459;50.254;19.014;2023-02-15T05:25:14;47.83;;;25.63;;
18659;SDS011;9459;50.254;19.014;2023-02-15T05:28:01;50.25;;;25.40;;
18659;SDS011;9459;50.254;19.014;2023-02-15T05:30:50;44.75;;;23.08;;
18659;SDS011;9459;50.254;19.014;2023-02-15T05:33:21;44.97;;;24.70;;
18659;SDS011;9459;50.254;19.014;2023-02-15T05:35:49;49.03;;;26.38;;
18659;SDS011;9459;50.254;19.014;2023-02-15T05:38:18;45.53;;;24.85;;
18659;SDS011;9459;50.254;19.014;2023-02-15T05:40:47;48.30;;;26.15;;
18659;SDS011;9459;50.254;19.014;2023-02-15T05:43:15;49.78;;;25.52;;
18659;SDS011;9459;50.254;19.014;2023-02-15T05:45:44;50.63;;;27.40;;
18659;SDS011;9459;50.254;19.014;2023-02-15T05:48:13;48.60;;;26.80;;
18659;SDS011;9459;50.254;19.014;2023-02-15T05:50:43;51.58;;;26.90;;
18659;SDS011;9459;50.254;19.014;2023-02-15T05:53:11;43.63;;;24.98;;
18659;SDS011;9459;50.254;19.014;2023-02-15T05:55:40;47.00;;;25.98;;
18659;SDS011;9459;50.254;19.014;2023-02-15T05:58:09;38.85;;;22.92;;
18659;SDS011;9459;50.254;19.014;2023-02-15T06:00:37;42.97;;;24.20;;
18659;SDS011;9459;50.254;19.014;2023-02-15T06:03:06;44.88;;;25.05;;
18659;SDS011;9459;50.254;19.014;2023-02-15T06:05:34;43.55;;;25.67;;
18659;SDS011;9459;50.254;19.014;2023-02-15T06:08:04;39.47;;;23.63;;
18659;SDS011;9459;50.254;19.014;2023-02-15T06:10:33;39.93;;;23.33;;
18659;SDS011;9459;50.254;19.014;2023-02-15T06:13:02;41.78;;;23.75;;
18659;SDS011;9459;50.254;19.014;2023-02-15T06:15:31;44.67;;;24.48;;
18659;SDS011;9459;50.254;19.014;2023-02-15T06:18:00;44.70;;;24.45;;
18659;SDS011;9459;50.254;19.014;2023-02-15T06:20:28;48.97;;;27.75;;
18659;SDS011;9459;50.254;19.014;2023-02-15T06:22:57;38.03;;;23.00;;
18659;SDS011;9459;50.254;19.014;2023-02-15T06:25:27;53.20;;;29.27;;
18659;SDS011;9459;50.254;19.014;2023-02-15T06:27:55;46.20;;;26.63;;
18659;SDS011;9459;50.254;19.014;2023-02-15T06:30:24;45.55;;;26.98;;
18659;SDS011;9459;50.254;19.014;2023-02-15T06:32:52;42.55;;;26.85;;
18659;SDS011;9459;50.254;19.014;2023-02-15T06:35:21;42.67;;;25.98;;
18659;SDS011;9459;50.254;19.014;2023-02-15T06:37:50;41.08;;;25.02;;
18659;SDS011;9459;50.254;19.014;2023-02-15T06:40:18;43.70;;;26.98;;
18659;SDS011;9459;50.254;19.014;2023-02-15T06:42:49;42.45;;;26.88;;
18659;SDS011;9459;50.254;19.014;2023-02-15T06:45:21;45.58;;;26.05;;
18659;SDS011;9459;50.254;19.014;2023-02-15T06:47:50;47.65;;;27.75;;
18659;SDS011;9459;50.254;19.014;2023-02-15T06:50:18;45.13;;;26.20;;
18659;SDS011;9459;50.254;19.014;2023-02-15T06:52:47;53.50;;;29.15;;
18659;SDS011;9459;50.254;19.014;2023-02-15T06:55:15;44.78;;;25.17;;
18659;SDS011;9459;50.254;19.014;2023-02-15T06:57:44;52.10;;;30.20;;
18659;SDS011;9459;50.254;19.014;2023-02-15T07:00:14;42.88;;;24.40;;
18659;SDS011;9459;50.254;19.014;2023-02-15T07:02:44;51.35;;;28.80;;
18659;SDS011;9459;50.254;19.014;2023-02-15T07:05:13;41.53;;;26.10;;
18659;SDS011;9459;50.254;19.014;2023-02-15T07:07:41;45.80;;;26.70;;
18659;SDS011;9459;50.254;19.014;2023-02-15T07:10:10;42.70;;;25.75;;
18659;SDS011;9459;50.254;19.014;2023-02-15T07:12:38;45.67;;;25.75;;
18659;SDS011;9459;50.254;19.014;2023-02-15T07:15:09;44.83;;;26.30;;
18659;SDS011;9459;50.254;19.014;2023-02-15T07:17:40;48.20;;;27.40;;
18659;SDS011;9459;50.254;19.014;2023-02-15T07:20:10;45.47;;;26.45;;
18659;SDS011;9459;50.254;19.014;2023-02-15T07:22:39;41.70;;;25.98;;
18659;SDS011;9459;50.254;19.014;2023-02-15T07:25:08;43.60;;;25.23;;
18659;SDS011;9459;50.254;19.014;2023-02-15T07:27:39;41.53;;;24.92;;
18659;SDS011;9459;50.254;19.014;2023-02-15T07:30:08;47.83;;;25.80;;
18659;SDS011;9459;50.254;19.014;2023-02-15T07:32:39;41.97;;;25.33;;
18659;SDS011;9459;50.254;19.014;2023-02-15T07:35:31;37.25;;;25.00;;
18659;SDS011;9459;50.254;19.014;2023-02-15T07:38:00;42.92;;;25.98;;
18659;SDS011;9459;50.254;19.014;2023-02-15T07:40:29;41.33;;;25.88;;
18659;SDS011;9459;50.254;19.014;2023-02-15T07:42:57;43.65;;;27.88;;
18659;SDS011;9459;50.254;19.014;2023-02-15T07:45:26;41.75;;;25.35;;
18659;SDS011;9459;50.254;19.014;2023-02-15T07:47:56;44.00;;;24.10;;
18659;SDS011;9459;50.254;19.014;2023-02-15T07:50:24;41.30;;;25.52;;
18659;SDS011;9459;50.254;19.014;2023-02-15T07:52:53;39.97;;;24.33;;
18659;SDS011;9459;50.254;19.014;2023-02-15T07:55:21;42.25;;;24.27;;
18659;SDS011;9459;50.254;19.014;2023-02-15T07:57:51;45.70;;;25.50;;
18659;SDS011;9459;50.254;19.014;2023-02-15T08:00:21;45.95;;;27.25;;
18659;SDS011;9459;50.254;19.014;2023-02-15T08:02:52;46.88;;;27.73;;
18659;SDS011;9459;50.254;19.014;2023-02-15T08:05:37;46.80;;;28.63;;
18659;SDS011;9459;50.254;19.014;2023-02-15T08:08:05;49.17;;;30.75;;
18659;SDS011;9459;50.254;19.014;2023-02-15T08:10:35;45.90;;;29.08;;
18659;SDS011;9459;50.254;19.014;2023-02-15T08:13:21;36.22;;;24.40;;
18659;SDS011;9459;50.254;19.014;2023-02-15T08:15:50;43.83;;;25.65;;
18659;SDS011;9459;50.254;19.014;2023-02-15T08:18:19;40.83;;;26.95;;
18659;SDS011;9459;50.254;19.014;2023-02-15T08:20:50;43.90;;;28.13;;
18659;SDS011;9459;50.254;19.014;2023-02-15T08:25:47;42.45;;;26.23;;
18659;SDS011;9459;50.254;19.014;2023-02-15T08:28:15;42.38;;;25.48;;
18659;SDS011;9459;50.254;19.014;2023-02-15T08:30:44;45.53;;;28.83;;
18659;SDS011;9459;50.254;19.014;2023-02-15T08:33:12;43.83;;;27.02;;
18659;SDS011;9459;50.254;19.014;2023-02-15T08:35:41;40.97;;;27.58;;
18659;SDS011;9459;50.254;19.014;2023-02-15T08:38:11;39.95;;;25.75;;
18659;SDS011;9459;50.254;19.014;2023-02-15T08:40:40;40.15;;;25.27;;
18659;SDS011;9459;50.254;19.014;2023-02-15T08:43:08;40.25;;;26.67;;
18659;SDS011;9459;50.254;19.014;2023-02-15T08:45:37;33.83;;;23.15;;
18659;SDS011;9459;50.254;19.014;2023-02-15T08:48:05;32.58;;;23.45;;
18659;SDS011;9459;50.254;19.014;2023-02-15T08:50:34;34.63;;;22.83;;
18659;SDS011;9459;50.254;19.014;2023-02-15T08:53:04;32.78;;;23.08;;
18659;SDS011;9459;50.254;19.014;2023-02-15T08:55:35;27.88;;;21.02;;
18659;SDS011;9459;50.254;19.014;2023-02-15T08:58:03;29.42;;;22.05;;
18659;SDS011;9459;50.254;19.014;2023-02-15T09:00:32;24.95;;;19.45;;
18659;SDS011;9459;50.254;19.014;2023-02-15T09:03:00;28.67;;;23.10;;
18659;SDS011;9459;50.254;19.014;2023-02-15T09:05:29;27.90;;;21.92;;
18659;SDS011;9459;50.254;19.014;2023-02-15T09:07:58;29.20;;;21.60;;
18659;SDS011;9459;50.254;19.014;2023-02-15T09:10:26;24.05;;;19.88;;
18659;SDS011;9459;50.254;19.014;2023-02-15T09:12:56;27.15;;;20.25;;
18659;SDS011;9459;50.254;19.014;2023-02-15T09:15:25;24.20;;;19.65;;
18659;SDS011;9459;50.254;19.014;2023-02-15T09:17:53;26.63;;;20.75;;
18659;SDS011;9459;50.254;19.014;2023-02-15T09:20:22;28.98;;;23.30;;
18659;SDS011;9459;50.254;19.014;2023-02-15T09:22:51;24.77;;;21.08;;
18659;SDS011;9459;50.254;19.014;2023-02-15T09:25:24;31.00;;;24.77;;
18659;SDS011;9459;50.254;19.014;2023-02-15T09:27:52;29.40;;;22.63;;
18659;SDS011;9459;50.254;19.014;2023-02-15T09:30:22;41.67;;;29.05;;
18659;SDS011;9459;50.254;19.014;2023-02-15T09:32:51;44.67;;;32.42;;
18659;SDS011;9459;50.254;19.014;2023-02-15T09:35:19;33.63;;;25.77;;
18659;SDS011;9459;50.254;19.014;2023-02-15T09:37:48;25.52;;;21.63;;
18659;SDS011;9459;50.254;19.014;2023-02-15T09:40:16;25.33;;;20.08;;
18659;SDS011;9459;50.254;19.014;2023-02-15T09:45:44;26.58;;;21.45;;
18659;SDS011;9459;50.254;19.014;2023-02-15T09:48:35;29.10;;;22.33;;
18659;SDS011;9459;50.254;19.014;2023-02-15T09:54:31;26.63;;;20.02;;
18659;SDS011;9459;50.254;19.014;2023-02-15T09:57:05;25.00;;;21.05;;
18659;SDS011;9459;50.254;19.014;2023-02-15T09:59:40;22.45;;;19.30;;
18659;SDS011;9459;50.254;19.014;2023-02-15T10:02:23;22.17;;;17.48;;
18659;SDS011;9459;50.254;19.014;2023-02-15T10:05:00;24.27;;;18.40;;
18659;SDS011;9459;50.254;19.014;2023-02-15T10:07:42;22.65;;;18.48;;
18659;SDS011;9459;50.254;19.014;2023-02-15T10:10:29;29.38;;;23.58;;
18659;SDS011;9459;50.254;19.014;2023-02-15T10:13:07;20.23;;;17.20;;
18659;SDS011;9459;50.254;19.014;2023-02-15T10:15:52;23.85;;;18.77;;
18659;SDS011;9459;50.254;19.014;2023-02-15T10:18:48;20.50;;;16.77;;
18659;SDS011;9459;50.254;19.014;2023-02-15T10:21:24;22.88;;;18.90;;
18659;SDS011;9459;50.254;19.014;2023-02-15T10:24:23;23.23;;;17.73;;
18659;SDS011;9459;50.254;19.014;2023-02-15T10:27:07;19.98;;;15.75;;
18659;SDS011;9459;50.254;19.014;2023-02-15T10:29:42;20.33;;;15.30;;
18659;SDS011;9459;50.254;19.014;2023-02-15T10:32:16;16.08;;;13.98;;
18659;SDS011;9459;50.254;19.014;2023-02-15T10:34:52;13.10;;;11.77;;
18659;SDS011;9459;50.254;19.014;2023-02-15T10:40:25;13.68;;;12.10;;
18659;SDS011;9459;50.254;19.014;2023-02-15T10:43:04;13.63;;;11.80;;
18659;SDS011;9459;50.254;19.014;2023-02-15T10:45:40;13.50;;;11.82;;
18659;SDS011;9459;50.254;19.014;2023-02-15T10:48:21;15.30;;;13.13;;
18659;SDS011;9459;50.254;19.014;2023-02-15T10:50:57;13.93;;;11.80;;
18659;SDS011;9459;50.254;19.014;2023-02-15T10:56:23;11.68;;;10.38;;
18659;SDS011;9459;50.254;19.014;2023-02-15T10:59:01;11.90;;;10.70;;
18659;SDS011;9459;50.254;19.014;2023-02-15T11:01:40;12.27;;;10.98;;
18659;SDS011;9459;50.254;19.014;2023-02-15T11:04:17;11.98;;;10.68;;
18659;SDS011;9459;50.254;19.014;2023-02-15T11:07:04;12.43;;;10.85;;
18659;SDS011;9459;50.254;19.014;2023-02-15T11:09:36;12.32;;;10.95;;
18659;SDS011;9459;50.254;19.014;2023-02-15T11:12:08;12.15;;;10.85;;
18659;SDS011;9459;50.254;19.014;2023-02-15T11:14:39;12.88;;;11.45;;
18659;SDS011;9459;50.254;19.014;2023-02-15T11:17:12;13.40;;;11.25;;
18659;SDS011;9459;50.254;19.014;2023-02-15T11:19:46;16.58;;;12.02;;
18659;SDS011;9459;50.254;19.014;2023-02-15T11:22:23;12.40;;;11.20;;
18659;SDS011;9459;50.254;19.014;2023-02-15T11:24:52;13.50;;;12.07;;
18659;SDS011;9459;50.254;19.014;2023-02-15T11:27:25;13.05;;;11.68;;
18659;SDS011;9459;50.254;19.014;2023-02-15T11:29:57;14.68;;;12.70;;
18659;SDS011;9459;50.254;19.014;2023-02-15T11:32:29;17.27;;;15.48;;
18659;SDS011;9459;50.254;19.014;2023-02-15T11:37:31;13.70;;;12.30;;
18659;SDS011;9459;50.254;19.014;2023-02-15T11:40:02;13.93;;;12.40;;
18659;SDS011;9459;50.254;19.014;2023-02-15T11:42:44;19.55;;;17.25;;
18659;SDS011;9459;50.254;19.014;2023-02-15T11:45:17;13.25;;;11.63;;
18659;SDS011;9459;50.254;19.014;2023-02-15T11:47:51;14.73;;;12.85;;
18659;SDS011;9459;50.254;19.014;2023-02-15T11:50:20;18.08;;;14.80;;
18659;SDS011;9459;50.254;19.014;2023-02-15T11:52:53;15.13;;;13.52;;
18659;SDS011;9459;50.254;19.014;2023-02-15T11:55:24;17.20;;;13.30;;
18659;SDS011;9459;50.254;19.014;2023-02-15T12:00:27;16.55;;;14.07;;
18659;SDS011;9459;50.254;19.014;2023-02-15T12:03:05;17.58;;;15.27;;
18659;SDS011;9459;50.254;19.014;2023-02-15T12:05:40;14.98;;;13.38;;
18659;SDS011;9459;50.254;19.014;2023-02-15T12:08:13;17.38;;;15.13;;
18659;SDS011;9459;50.254;19.014;2023-02-15T12:10:46;18.90;;;15.95;;
18659;SDS011;9459;50.254;19.014;2023-02-15T12:13:26;17.13;;;15.27;;
18659;SDS011;9459;50.254;19.014;2023-02-15T12:15:57;22.88;;;17.60;;
18659;SDS011;9459;50.254;19.014;2023-02-15T12:18:33;22.88;;;17.85;;
18659;SDS011;9459;50.254;19.014;2023-02-15T12:21:05;18.90;;;15.60;;
18659;SDS011;9459;50.254;19.014;2023-02-15T12:23:41;23.42;;;19.70;;
18659;SDS011;9459;50.254;19.014;2023-02-15T12:26:11;20.77;;;17.80;;
18659;SDS011;9459;50.254;19.014;2023-02-15T12:28:41;19.77;;;15.77;;
18659;SDS011;9459;50.254;19.014;2023-02-15T12:31:18;23.67;;;17.40;;
18659;SDS011;9459;50.254;19.014;2023-02-15T12:33:49;24.23;;;18.05;;
18659;SDS011;9459;50.254;19.014;2023-02-15T12:36:20;24.90;;;18.38;;
18659;SDS011;9459;50.254;19.014;2023-02-15T12:39:03;25.33;;;17.85;;
18659;SDS011;9459;50.254;19.014;2023-02-15T12:41:34;27.98;;;17.75;;
18659;SDS011;9459;50.254;19.014;2023-02-15T12:44:06;22.23;;;17.83;;
18659;SDS011;9459;50.254;19.014;2023-02-15T12:46:40;26.27;;;18.05;;
18659;SDS011;9459;50.254;19.014;2023-02-15T12:49:14;24.90;;;17.00;;
18659;SDS011;9459;50.254;19.014;2023-02-15T12:51:48;25.23;;;18.77;;
18659;SDS011;9459;50.254;19.014;2023-02-15T12:54:24;24.08;;;16.88;;
18659;SDS011;9459;50.254;19.014;2023-02-15T12:57:01;25.17;;;17.95;;
18659;SDS011;9459;50.254;19.014;2023-02-15T12:59:48;26.38;;;17.73;;
18659;SDS011;9459;50.254;19.014;2023-02-15T13:02:21;25.05;;;17.70;;
18659;SDS011;9459;50.254;19.014;2023-02-15T13:04:55;23.67;;;16.40;;
18659;SDS011;9459;50.254;19.014;2023-02-15T13:07:29;26.17;;;18.10;;
18659;SDS011;9459;50.254;19.014;2023-02-15T13:10:00;25.23;;;17.85;;
18659;SDS011;9459;50.254;19.014;2023-02-15T13:12:30;28.38;;;19.45;;
18659;SDS011;9459;50.254;19.014;2023-02-15T13:14:59;29.55;;;20.27;;
18659;SDS011;9459;50.254;19.014;2023-02-15T13:17:30;23.45;;;17.50;;
18659;SDS011;9459;50.254;19.014;2023-02-15T13:20:02;25.85;;;18.38;;
18659;SDS011;9459;50.254;19.014;2023-02-15T13:22:35;23.30;;;17.58;;
18659;SDS011;9459;50.254;19.014;2023-02-15T13:25:12;28.20;;;18.88;;
18659;SDS011;9459;50.254;19.014;2023-02-15T13:27:42;25.08;;;17.08;;
18659;SDS011;9459;50.254;19.014;2023-02-15T13:30:21;27.35;;;18.60;;
18659;SDS011;9459;50.254;19.014;2023-02-15T13:32:54;27.27;;;18.00;;
18659;SDS011;9459;50.254;19.014;2023-02-15T13:35:24;25.88;;;17.20;;
18659;SDS011;9459;50.254;19.014;2023-02-15T13:41:00;27.35;;;18.70;;
18659;SDS011;9459;50.254;19.014;2023-02-15T13:43:35;27.08;;;18.65;;
18659;SDS011;9459;50.254;19.014;2023-02-15T13:46:13;25.15;;;18.20;;
18659;SDS011;9459;50.254;19.014;2023-02-15T13:48:49;24.02;;;16.80;;
18659;SDS011;9459;50.254;19.014;2023-02-15T13:51:24;22.90;;;16.58;;
18659;SDS011;9459;50.254;19.014;2023-02-15T13:54:03;22.77;;;15.63;;
18659;SDS011;9459;50.254;19.014;2023-02-15T13:56:44;25.83;;;17.73;;
18659;SDS011;9459;50.254;19.014;2023-02-15T13:59:25;25.25;;;17.50;;
18659;SDS011;9459;50.254;19.014;2023-02-15T14:02:07;44.25;;;29.50;;
18659;SDS011;9459;50.254;19.014;2023-02-15T14:04:59;25.60;;;17.67;;
18659;SDS011;9459;50.254;19.014;2023-02-15T14:07:49;41.22;;;27.35;;
18659;SDS011;9459;50.254;19.014;2023-02-15T14:10:35;35.22;;;24.58;;
18659;SDS011;9459;50.254;19.014;2023-02-15T14:13:24;27.05;;;18.08;;
18659;SDS011;9459;50.254;19.014;2023-02-15T14:16:10;27.40;;;17.25;;
18659;SDS011;9459;50.254;19.014;2023-02-15T14:18:44;33.47;;;22.05;;
18659;SDS011;9459;50.254;19.014;2023-02-15T14:21:16;27.63;;;19.55;;
18659;SDS011;9459;50.254;19.014;2023-02-15T14:23:57;21.83;;;15.65;;
18659;SDS011;9459;50.254;19.014;2023-02-15T14:26:36;28.67;;;19.42;;
18659;SDS011;9459;50.254;19.014;2023-02-15T14:29:13;24.15;;;16.17;;
18659;SDS011;9459;50.254;19.014;2023-02-15T14:31:46;20.00;;;13.98;;
18659;SDS011;9459;50.254;19.014;2023-02-15T14:34:19;25.20;;;17.23;;
18659;SDS011;9459;50.254;19.014;2023-02-15T14:36:51;24.45;;;16.05;;
18659;SDS011;9459;50.254;19.014;2023-02-15T14:39:23;20.15;;;14.02;;
18659;SDS011;9459;50.254;19.014;2023-02-15T14:42:18;19.40;;;14.25;;
18659;SDS011;9459;50.254;19.014;2023-02-15T14:44:55;23.77;;;14.90;;
18659;SDS011;9459;50.254;19.014;2023-02-15T14:47:26;24.58;;;15.95;;
18659;SDS011;9459;50.254;19.014;2023-02-15T14:49:59;26.25;;;16.95;;
18659;SDS011;9459;50.254;19.014;2023-02-15T14:53:15;23.67;;;14.90;;
18659;SDS011;9459;50.254;19.014;2023-02-15T14:55:45;21.23;;;14.45;;
18659;SDS011;9459;50.254;19.014;2023-02-15T14:58:13;23.08;;;15.32;;
18659;SDS011;9459;50.254;19.014;2023-02-15T15:00:44;23.52;;;15.02;;
18659;SDS011;9459;50.254;19.014;2023-02-15T15:03:18;23.45;;;16.20;;
18659;SDS011;9459;50.254;19.014;2023-02-15T15:05:50;23.33;;;16.48;;
18659;SDS011;9459;50.254;19.014;2023-02-15T15:08:22;25.20;;;17.75;;
18659;SDS011;9459;50.254;19.014;2023-02-15T15:10:55;24.20;;;17.13;;
18659;SDS011;9459;50.254;19.014;2023-02-15T15:13:51;24.98;;;17.63;;
18659;SDS011;9459;50.254;19.014;2023-02-15T15:16:29;24.05;;;17.02;;
18659;SDS011;9459;50.254;19.014;2023-02-15T15:22:32;34.63;;;22.65;;
18659;SDS011;9459;50.254;19.014;2023-02-15T15:25:01;48.85;;;31.95;;